Airfield :
LOGIN :

Register | Disclaimer

   EN    FR    IT 

 










Legend :    VFR   Marginal VFR   IFR   Intensive IFR   Very Intensive IFR
Visi :
Ceiling :
>= 8 km
>= 3000ft
5 to 8 km
1000 to 3000 ft
1500m to 5 km
500 to 1000 ft
800 to 1500m
200 to 500 ft
< 800m
< 200 ft
Symbols :   Thunderstorms  Fog  Heavy snow  Heavy precipitations  Wind > 20 kt
SIGMETs :     Misc.  Thunderstorms  Icing  Turbulence  Mountain Waves  Volcanic Ashes






- Airport Elevation : 247 ft
- IATA code : BLL


EKBI - Billund

CURRENT METAR :
  • 290550Z AUTO 13011KT 9999 BKN017/// BKN063/// BKN073/// 14/11 Q1008

EXPIRED METARs :
  • 290520Z AUTO 11009KT 080V140 9999 OVC051/// 14/12 Q1008
  • 290450Z AUTO 12009KT 9999 OVC055/// 13/11 Q1009
  • 290420Z AUTO 11007KT 9999 FEW047/// SCT064/// BKN120/// 13/11 Q1009
  • 290350Z AUTO 12008KT 090V150 9999 BKN074/// 12/11 Q1009
  • 290320Z AUTO 10006KT 9999 OVC120/// 12/10 Q1010
  • 290250Z AUTO 11006KT 9999 FEW087/// FEW110/// BKN140/// BKN200/// 11/10 Q1010
  • 290220Z AUTO 11007KT 9999 BKN088/// OVC110/// 12/10 Q1010
  • 290150Z AUTO 11006KT 9999 BKN095/// BKN160/// 11/09 Q1011
  • 290120Z AUTO 11006KT 9999 SCT098/// BKN170/// BKN220/// 10/09 Q1011

TAF TAF EKBI
Valid from the 29 at 06:00 until the 30 at 06:00 UTC


290506Z 2906/3006 11012KT 9999 BKN040
BECMG 2906/2908 3000 -RADZ BKN005
TEMPO 2908/2913 8000 SHRA SCT008 BKN015CB
BECMG 2913/2915 17010KT 9999 NSW BKN020
TEMPO 2915/3006 4000 SHRA BKN010 SCT020CB



MET'MAP, your aeronautical weather chart ! - Copyright ORBIFLY December 2007 - Disclaimer

ORBIFLY MET'MAP TEAM :

Programming & Development : Alexandra Zaïnal
Original concept : Baudouin d'Aumeries
Technical & hardware support : Manuel Goepfert
Assistance : Marc-Olivier Méhu




SOURCES & CREDITS :

   NOAA